Time;durP1;ratioP1;P1;durP2;ratioP2;P2;SDS_P1;SDS_P2;PMS_P1;PMS_P2;Temp;Humidity;BMP_temperature;BMP_pressure;BME280_temperature;BME280_humidity;BME280_pressure;Samples;Min_cycle;Max_cycle;Signal;HPM_P1;HPM_P2
2023/07/26 00:02:12;;;;;;;9.23;8.33;;;;;;;16.39;66.41;95760.13;5107844;28;20196;-70
2023/07/26 00:04:37;;;;;;;8.77;7.93;;;;;;;16.26;66.65;95757.59;5107751;28;20192;-70
2023/07/26 00:07:03;;;;;;;9.90;8.90;;;;;;;16.17;66.56;95755.66;5110887;28;20215;-69
2023/07/26 00:09:28;;;;;;;11.97;9.40;;;;;;;16.25;66.48;95757.72;5111077;28;20869;-70
2023/07/26 00:11:54;;;;;;;9.47;8.57;;;;;;;16.26;66.31;95760.25;5111514;28;20172;-70
2023/07/26 00:14:19;;;;;;;9.50;8.50;;;;;;;16.42;66.42;95757.28;5111427;28;20189;-69
2023/07/26 00:16:44;;;;;;;13.03;8.60;;;;;;;16.33;66.38;95757.16;5111610;28;20943;-69
2023/07/26 00:19:10;;;;;;;12.00;8.30;;;;;;;16.32;66.66;95758.09;5111157;27;20216;-69
2023/07/26 00:21:35;;;;;;;11.00;7.70;;;;;;;16.26;66.74;95754.97;5111518;28;20198;-70
2023/07/26 00:24:01;;;;;;;9.37;8.30;;;;;;;16.12;67.50;95755.19;5110320;28;20227;-69
2023/07/26 00:26:26;;;;;;;8.97;8.07;;;;;;;16.20;67.72;95755.41;5111369;28;20168;-68
2023/07/26 00:28:51;;;;;;;11.50;8.37;;;;;;;16.23;67.23;95755.22;5111121;28;20165;-69
2023/07/26 00:31:18;;;;;;;11.73;9.03;;;;;;;16.23;66.76;95755.22;5093780;28;20205;-73
2023/07/26 00:33:44;;;;;;;12.10;9.80;;;;;;;16.20;66.66;95763.34;5090705;28;20170;-69
2023/07/26 00:36:09;;;;;;;11.20;9.23;;;;;;;16.22;66.22;95760.59;5090700;28;20414;-69
2023/07/26 00:38:35;;;;;;;14.63;10.20;;;;;;;16.08;66.92;95762.50;5090625;28;20189;-72
2023/07/26 00:41:00;;;;;;;10.50;9.40;;;;;;;15.98;67.45;95760.69;5091390;28;20221;-70
2023/07/26 00:43:26;;;;;;;11.60;10.40;;;;;;;16.17;66.47;95771.53;5094056;28;20203;-69
2023/07/26 00:45:52;;;;;;;9.97;9.00;;;;;;;16.13;66.57;95769.25;5094780;28;20212;-71
2023/07/26 00:48:17;;;;;;;12.00;10.07;;;;;;;15.95;67.35;95776.78;5093998;28;20308;-71
2023/07/26 00:50:45;;;;;;;17.03;10.03;;;;;;;16.08;67.03;95774.88;5091857;28;20514;-70
2023/07/26 00:53:12;;;;;;;13.20;10.37;;;;;;;16.11;67.03;95772.03;5090245;28;20177;-70
2023/07/26 00:55:38;;;;;;;9.93;8.77;;;;;;;16.23;66.75;95773.75;5088969;28;20869;-70
2023/07/26 00:58:03;;;;;;;13.80;9.93;;;;;;;16.18;67.37;95765.31;5090180;28;20407;-69
2023/07/26 01:00:29;;;;;;;11.20;10.00;;;;;;;16.08;67.83;95761.66;5089746;28;20250;-69
2023/07/26 01:02:54;;;;;;;18.90;10.40;;;;;;;16.18;67.33;95769.75;5090035;28;20181;-70
2023/07/26 01:05:20;;;;;;;11.97;10.23;;;;;;;16.06;66.93;95769.72;5090031;28;20296;-68
2023/07/26 01:08:05;;;;;;;11.57;10.00;;;;;;;16.09;66.79;95773.94;5090289;28;20174;-69
2023/07/26 01:10:40;;;;;;;12.93;9.83;;;;;;;16.08;66.69;95773.06;5085375;28;20211;-70
2023/07/26 01:13:23;;;;;;;11.73;10.63;;;;;;;16.03;67.41;95782.34;5089875;28;20606;-70
2023/07/26 01:15:49;;;;;;;10.60;9.30;;;;;;;16.00;66.38;95787.88;5089820;28;20420;-69
2023/07/26 01:18:16;;;;;;;10.90;9.80;;;;;;;16.07;66.22;95787.28;5089928;28;20888;-70
2023/07/26 01:20:42;;;;;;;13.70;10.73;;;;;;;16.07;66.96;95797.88;5089585;28;20170;-69
2023/07/26 01:23:08;;;;;;;11.80;10.60;;;;;;;16.05;66.25;95797.13;5089663;28;20427;-69
2023/07/26 01:25:34;;;;;;;14.77;10.30;;;;;;;16.07;66.35;95799.69;5089500;28;20431;-68
2023/07/26 01:28:00;;;;;;;12.10;10.80;;;;;;;15.93;66.36;95797.22;5089623;28;20258;-69
2023/07/26 01:30:30;;;;;;;11.93;10.60;;;;;;;15.95;66.84;95796.16;5099490;28;20943;-69
2023/07/26 01:32:59;;;;;;;14.67;11.87;;;;;;;15.91;66.62;95796.50;5109906;28;20176;-68
2023/07/26 01:35:25;;;;;;;17.03;10.47;;;;;;;15.96;66.49;95797.81;5109965;28;20470;-70
2023/07/26 01:37:54;;;;;;;12.47;10.20;;;;;;;15.92;66.85;95803.47;5109650;28;20540;-70
2023/07/26 01:40:21;;;;;;;12.73;11.43;;;;;;;15.82;66.42;95795.38;5109433;28;20265;-74
2023/07/26 01:42:48;;;;;;;12.77;11.57;;;;;;;15.82;66.89;95809.44;5109672;28;21133;-70
2023/07/26 01:45:13;;;;;;;10.57;9.57;;;;;;;16.00;66.75;95809.03;5109692;27;20798;-69
2023/07/26 01:47:39;;;;;;;14.00;11.20;;;;;;;15.87;67.28;95804.69;5109823;28;20417;-68
2023/07/26 01:50:05;;;;;;;12.60;11.30;;;;;;;15.92;66.39;95800.81;5109244;28;20548;-69
2023/07/26 01:52:31;;;;;;;13.73;11.77;;;;;;;15.81;66.72;95801.63;5109476;28;20548;-70
2023/07/26 01:54:56;;;;;;;12.23;10.90;;;;;;;15.96;66.66;95804.94;5109346;28;20435;-70
2023/07/26 01:57:24;;;;;;;15.13;10.27;;;;;;;15.83;66.65;95816.44;5109424;28;20708;-68
2023/07/26 01:59:50;;;;;;;11.07;9.80;;;;;;;15.82;65.85;95817.38;5109019;28;20196;-71
2023/07/26 02:02:15;;;;;;;15.13;12.20;;;;;;;15.81;65.88;95812.22;5109384;28;20423;-69
2023/07/26 02:04:42;;;;;;;15.37;9.90;;;;;;;15.80;65.91;95806.09;5109316;28;20197;-69
2023/07/26 02:07:08;;;;;;;14.07;11.30;;;;;;;15.87;66.20;95814.38;5109201;27;20184;-68
2023/07/26 02:09:33;;;;;;;18.67;12.53;;;;;;;15.76;67.30;95819.66;5108738;28;20843;-68
2023/07/26 02:11:58;;;;;;;16.57;11.90;;;;;;;15.73;67.11;95822.50;5112768;27;20192;-69
2023/07/26 02:14:24;;;;;;;13.63;11.50;;;;;;;15.67;66.70;95827.25;5115931;28;20184;-69
2023/07/26 02:16:49;;;;;;;12.90;11.57;;;;;;;15.75;66.52;95828.53;5109085;28;20203;-68
2023/07/26 02:19:15;;;;;;;12.50;10.50;;;;;;;15.66;65.79;95824.72;5108326;28;20270;-68
2023/07/26 02:21:40;;;;;;;15.87;10.60;;;;;;;15.72;65.53;95823.47;5108175;28;20185;-69
2023/07/26 02:24:06;;;;;;;13.80;11.27;;;;;;;15.68;66.15;95828.09;5107724;28;20196;-68
2023/07/26 02:26:31;;;;;;;15.20;10.90;;;;;;;15.84;65.61;95830.50;5108028;28;20176;-70
2023/07/26 02:28:56;;;;;;;21.93;11.37;;;;;;;15.76;66.25;95836.38;5107545;28;20169;-70
2023/07/26 02:31:22;;;;;;;18.63;11.57;;;;;;;15.69;65.74;95847.50;5089852;28;20186;-69
2023/07/26 02:33:47;;;;;;;15.77;11.43;;;;;;;15.60;65.82;95841.91;5087600;28;20514;-69
2023/07/26 02:36:12;;;;;;;11.50;10.30;;;;;;;15.69;66.00;95850.97;5087763;28;20235;-70
2023/07/26 02:38:38;;;;;;;10.73;9.70;;;;;;;15.64;66.26;95851.31;5087418;28;20250;-68
2023/07/26 02:41:03;;;;;;;12.33;10.30;;;;;;;15.67;65.73;95859.00;5087548;28;20539;-68
2023/07/26 02:43:29;;;;;;;11.67;10.57;;;;;;;15.67;65.83;95861.66;5087615;28;20173;-68
2023/07/26 02:45:54;;;;;;;10.90;9.80;;;;;;;15.59;66.10;95860.50;5087308;28;20193;-69
2023/07/26 02:48:19;;;;;;;12.30;11.00;;;;;;;15.59;65.75;95865.81;5087254;28;20193;-69
2023/07/26 02:50:45;;;;;;;16.53;11.10;;;;;;;15.50;65.69;95863.84;5087110;28;20586;-69
2023/07/26 02:53:10;;;;;;;15.13;10.13;;;;;;;15.52;65.28;95867.19;5087225;28;20683;-69
2023/07/26 02:55:39;;;;;;;12.67;9.37;;;;;;;15.58;65.25;95866.78;5085702;28;20189;-69
2023/07/26 02:58:04;;;;;;;10.83;9.03;;;;;;;15.48;65.42;95869.22;5087147;28;20173;-69
2023/07/26 03:00:30;;;;;;;11.00;9.90;;;;;;;15.57;65.59;95873.03;5087466;28;20508;-70
2023/07/26 03:02:55;;;;;;;14.60;10.93;;;;;;;15.61;64.99;95866.53;5087675;28;20181;-69
2023/07/26 03:05:20;;;;;;;12.03;9.30;;;;;;;15.60;64.81;95876.28;5087056;28;20229;-70
2023/07/26 03:07:46;;;;;;;10.03;9.03;;;;;;;15.56;64.84;95879.25;5087768;28;20322;-68
2023/07/26 03:10:11;;;;;;;12.60;10.73;;;;;;;15.59;64.83;95877.25;5086821;28;20173;-70
2023/07/26 03:12:36;;;;;;;13.00;11.17;;;;;;;15.63;64.71;95883.16;5086847;28;20733;-70
2023/07/26 03:15:02;;;;;;;10.37;8.80;;;;;;;15.59;65.06;95882.53;5086847;28;20697;-70
2023/07/26 03:17:27;;;;;;;18.80;9.70;;;;;;;15.59;64.58;95881.66;5086892;28;20170;-70
2023/07/26 03:19:53;;;;;;;15.40;10.53;;;;;;;15.58;64.85;95883.47;5086365;28;20212;-70
2023/07/26 03:22:18;;;;;;;15.90;8.87;;;;;;;15.53;65.51;95890.06;5086722;28;20303;-69
2023/07/26 03:24:43;;;;;;;14.90;8.93;;;;;;;15.55;65.59;95888.16;5086740;28;20193;-70
2023/07/26 03:27:09;;;;;;;12.67;10.00;;;;;;;15.61;65.06;95893.84;5086718;28;20177;-70
2023/07/26 03:29:34;;;;;;;16.47;9.67;;;;;;;15.55;65.78;95894.28;5089271;28;20161;-68
2023/07/26 03:31:59;;;;;;;10.13;9.13;;;;;;;15.48;65.87;95890.38;5107114;28;20203;-68
2023/07/26 03:34:25;;;;;;;15.03;9.83;;;;;;;15.49;66.37;95886.78;5107262;28;20207;-70
2023/07/26 03:36:50;;;;;;;11.03;9.93;;;;;;;15.50;66.17;95880.56;5109283;28;20293;-71
2023/07/26 03:39:16;;;;;;;17.33;10.60;;;;;;;15.53;66.09;95892.72;5113921;28;20193;-70
2023/07/26 03:41:41;;;;;;;13.17;10.93;;;;;;;15.49;65.59;95888.59;5119418;28;20219;-71
2023/07/26 03:44:07;;;;;;;16.10;10.40;;;;;;;15.39;66.30;95886.59;5120325;28;20279;-71
2023/07/26 03:46:32;;;;;;;14.30;10.10;;;;;;;15.41;65.92;95887.34;5116327;28;20614;-70
2023/07/26 03:48:57;;;;;;;28.80;11.00;;;;;;;15.43;66.18;95888.06;5110632;28;20252;-69
2023/07/26 03:51:23;;;;;;;15.17;9.53;;;;;;;15.38;65.86;95898.13;5110697;28;20567;-69
2023/07/26 03:53:48;;;;;;;15.60;10.93;;;;;;;15.41;66.22;95908.50;5110931;28;20176;-70
2023/07/26 03:56:14;;;;;;;11.63;8.60;;;;;;;15.41;66.18;95911.13;5110999;28;20296;-70
2023/07/26 03:58:39;;;;;;;16.63;10.30;;;;;;;15.50;65.70;95914.09;5110763;28;20870;-71
2023/07/26 04:01:04;;;;;;;10.80;9.37;;;;;;;15.46;65.96;95919.56;5110561;28;20184;-70
2023/07/26 04:03:30;;;;;;;11.03;9.63;;;;;;;15.31;66.21;95919.84;5110491;28;20200;-70
2023/07/26 04:05:55;;;;;;;12.70;11.03;;;;;;;15.45;65.90;95922.34;5110126;27;20192;-71
2023/07/26 04:08:20;;;;;;;19.10;9.23;;;;;;;15.24;66.34;95930.00;5110352;28;20555;-70
2023/07/26 04:10:46;;;;;;;15.40;9.77;;;;;;;15.33;66.07;95924.06;5110190;28;20165;-69
2023/07/26 04:13:11;;;;;;;9.43;8.53;;;;;;;15.25;66.41;95919.28;5110336;28;20191;-70
2023/07/26 04:15:36;;;;;;;12.97;9.87;;;;;;;15.30;66.69;95926.91;5110326;28;20680;-70
2023/07/26 04:18:02;;;;;;;11.20;9.33;;;;;;;15.37;66.60;95929.97;5105792;28;20181;-70
2023/07/26 04:20:27;;;;;;;12.87;8.87;;;;;;;15.45;66.72;95936.41;5088615;28;20225;-70
2023/07/26 04:22:52;;;;;;;12.53;11.13;;;;;;;15.41;67.13;95931.44;5086506;28;20184;-70
2023/07/26 04:25:18;;;;;;;12.63;10.10;;;;;;;15.39;67.39;95936.84;5082576;28;20221;-71
2023/07/26 04:27:43;;;;;;;11.90;10.70;;;;;;;15.39;68.03;95936.00;5088038;28;20225;-70
2023/07/26 04:30:09;;;;;;;22.10;11.13;;;;;;;15.39;67.89;95941.28;5087717;28;20173;-70
2023/07/26 04:32:34;;;;;;;14.17;8.73;;;;;;;15.49;67.75;95938.81;5096187;28;21018;-71
2023/07/26 04:34:59;;;;;;;15.10;10.17;;;;;;;15.41;67.91;95945.50;5088996;28;20273;-71
2023/07/26 04:37:25;;;;;;;14.53;10.57;;;;;;;15.48;67.42;95947.72;5089269;28;20254;-69
2023/07/26 04:39:50;;;;;;;17.50;9.40;;;;;;;15.44;67.50;95945.28;5090237;28;20487;-70
2023/07/26 04:42:15;;;;;;;13.20;10.67;;;;;;;15.44;67.33;95944.44;5103058;28;20717;-70
2023/07/26 04:44:41;;;;;;;11.47;8.93;;;;;;;15.58;66.85;95949.59;5107296;28;20292;-70
2023/07/26 04:47:06;;;;;;;11.57;9.30;;;;;;;15.55;66.77;95954.28;5099532;28;20242;-68
2023/07/26 04:49:32;;;;;;;9.80;8.80;;;;;;;15.49;66.49;95958.19;5080316;28;20231;-72
2023/07/26 04:51:57;;;;;;;8.90;7.20;;;;;;;15.50;66.68;95959.03;5091606;28;20173;-70
2023/07/26 04:54:22;;;;;;;11.57;9.13;;;;;;;15.49;66.87;95957.34;5091768;28;20624;-71
2023/07/26 04:56:48;;;;;;;9.70;6.83;;;;;;;15.42;66.52;95955.13;5087258;28;20626;-71
2023/07/26 04:59:14;;;;;;;12.80;7.00;;;;;;;15.48;66.21;95969.72;5086347;28;20271;-70
2023/07/26 05:01:39;;;;;;;12.03;7.97;;;;;;;15.43;66.46;95969.19;5087219;28;20177;-71
2023/07/26 05:04:05;;;;;;;16.17;6.83;;;;;;;15.56;66.21;95969.16;5090519;28;21230;-72
2023/07/26 05:06:31;;;;;;;12.80;8.00;;;;;;;15.53;65.78;95964.94;5076029;28;20420;-71
2023/07/26 05:08:56;;;;;;;9.70;7.00;;;;;;;15.55;65.46;95978.06;5073158;28;20864;-70
2023/07/26 05:11:24;;;;;;;16.23;7.43;;;;;;;15.60;65.28;95970.66;5073161;28;20186;-72
2023/07/26 05:13:50;;;;;;;7.73;6.27;;;;;;;15.51;64.92;95985.38;5076242;28;20192;-71
2023/07/26 05:16:15;;;;;;;14.03;5.50;;;;;;;15.58;64.54;95983.97;5078865;28;20514;-71
2023/07/26 05:18:40;;;;;;;19.57;6.93;;;;;;;15.62;64.50;95988.09;5073986;28;20194;-68
2023/07/26 05:21:06;;;;;;;10.13;6.40;;;;;;;15.58;63.74;95993.72;5079058;28;20686;-70
2023/07/26 05:23:31;;;;;;;8.13;5.50;;;;;;;15.68;63.76;95992.09;5086523;28;20206;-70
2023/07/26 05:25:57;;;;;;;7.37;5.30;;;;;;;15.60;64.18;95987.38;5083939;28;20219;-72
2023/07/26 05:28:22;;;;;;;8.60;6.40;;;;;;;15.55;65.21;95992.13;5094868;28;20264;-71
2023/07/26 05:30:48;;;;;;;11.33;6.30;;;;;;;15.56;65.40;95999.09;5096115;28;20169;-70
2023/07/26 05:33:14;;;;;;;14.17;5.93;;;;;;;15.58;65.58;95991.06;5090511;28;20174;-71
2023/07/26 05:35:39;;;;;;;16.80;7.40;;;;;;;15.63;65.67;95996.88;5085289;28;20212;-70
2023/07/26 05:38:04;;;;;;;18.33;7.40;;;;;;;15.70;65.50;95997.28;5094623;28;21081;-69
2023/07/26 05:40:30;;;;;;;5.67;4.70;;;;;;;16.24;65.09;95994.31;5104333;28;20221;-70
2023/07/26 05:42:55;;;;;;;7.70;4.97;;;;;;;16.94;63.45;95988.25;5106904;28;20219;-71
2023/07/26 05:45:21;;;;;;;9.83;6.00;;;;;;;16.34;62.40;95997.97;5107022;28;20211;-69
2023/07/26 05:47:46;;;;;;;7.93;5.20;;;;;;;15.94;63.23;95994.72;5095539;28;20185;-71
2023/07/26 05:50:11;;;;;;;13.03;5.83;;;;;;;15.79;64.42;95996.69;5101572;28;20173;-69
2023/07/26 05:52:38;;;;;;;8.00;5.17;;;;;;;15.74;64.39;96006.75;5106539;28;20173;-70
2023/07/26 05:55:07;;;;;;;8.50;5.20;;;;;;;15.53;64.88;96004.63;5100231;28;20197;-70
2023/07/26 05:57:33;;;;;;;11.20;5.73;;;;;;;15.60;65.60;96002.41;5098547;28;20441;-68
2023/07/26 05:59:58;;;;;;;6.93;5.70;;;;;;;15.54;65.90;96005.47;5105430;28;20446;-70
2023/07/26 06:02:24;;;;;;;6.67;5.00;;;;;;;15.46;66.50;96003.34;5091143;28;20322;-70
2023/07/26 06:04:49;;;;;;;6.80;5.43;;;;;;;15.41;66.37;96014.25;5101764;28;20222;-70
2023/07/26 06:07:16;;;;;;;7.03;4.40;;;;;;;15.45;65.35;96020.19;5097737;28;20200;-70
2023/07/26 06:09:41;;;;;;;15.60;4.90;;;;;;;15.67;64.85;96007.13;5093552;28;20569;-70
2023/07/26 06:12:07;;;;;;;4.93;4.30;;;;;;;15.65;65.06;96010.84;5084502;28;20412;-71
2023/07/26 06:14:33;;;;;;;10.23;5.00;;;;;;;15.79;65.23;96016.03;5091689;28;20224;-69
2023/07/26 06:16:58;;;;;;;8.50;4.30;;;;;;;15.76;64.65;96021.56;5096766;28;20234;-70
2023/07/26 06:19:24;;;;;;;19.23;5.10;;;;;;;15.67;65.25;96019.53;5105296;28;20193;-70
2023/07/26 06:21:50;;;;;;;13.60;5.83;;;;;;;15.62;65.42;96024.28;5106124;28;20818;-70
2023/07/26 06:24:16;;;;;;;8.70;5.00;;;;;;;15.58;64.62;96026.28;5091670;28;20239;-68
2023/07/26 06:26:41;;;;;;;10.10;4.20;;;;;;;15.62;64.26;96029.59;5098402;28;20502;-69
2023/07/26 06:29:06;;;;;;;20.00;5.40;;;;;;;15.68;64.61;96029.13;5099587;28;20177;-70
2023/07/26 06:31:32;;;;;;;6.00;3.97;;;;;;;15.69;64.55;96024.72;5095870;28;20254;-70
2023/07/26 06:33:57;;;;;;;8.20;3.50;;;;;;;15.58;64.29;96028.09;5089636;28;20657;-70
2023/07/26 06:36:23;;;;;;;8.03;4.50;;;;;;;15.63;64.15;96026.81;5080786;28;20178;-71
2023/07/26 06:38:48;;;;;;;3.90;3.50;;;;;;;15.58;63.82;96034.22;5101250;28;20289;-70
2023/07/26 06:41:13;;;;;;;6.40;3.80;;;;;;;15.54;63.62;96027.44;5108007;28;20279;-70
2023/07/26 06:43:39;;;;;;;10.07;4.00;;;;;;;15.55;63.85;96033.63;5108505;28;20289;-70
2023/07/26 06:46:04;;;;;;;10.23;4.00;;;;;;;15.65;63.68;96035.50;5103141;28;20265;-71
2023/07/26 06:48:29;;;;;;;10.87;3.80;;;;;;;15.73;63.57;96042.06;5091576;28;20189;-69
2023/07/26 06:50:55;;;;;;;7.30;3.77;;;;;;;15.76;63.46;96041.88;5087608;28;20216;-71
2023/07/26 06:53:20;;;;;;;7.80;3.60;;;;;;;15.81;63.27;96035.31;5089081;28;20176;-69
2023/07/26 06:55:45;;;;;;;6.47;4.00;;;;;;;15.85;63.18;96030.63;5087496;28;20243;-68
2023/07/26 06:58:11;;;;;;;7.00;3.87;;;;;;;15.83;62.89;96030.75;5093330;28;20166;-70
2023/07/26 07:00:36;;;;;;;4.47;4.07;;;;;;;15.81;62.62;96031.81;5108903;28;20300;-71
2023/07/26 07:03:03;;;;;;;5.90;3.87;;;;;;;15.78;62.92;96038.19;5105887;28;20194;-68
2023/07/26 07:05:30;;;;;;;5.00;3.80;;;;;;;15.87;62.84;96034.00;5095043;28;20723;-71
2023/07/26 07:07:56;;;;;;;3.70;3.33;;;;;;;15.86;62.81;96035.81;5101996;28;20432;-69
2023/07/26 07:10:22;;;;;;;11.13;4.50;;;;;;;15.92;62.59;96026.63;5097234;28;20435;-71
2023/07/26 07:12:48;;;;;;;5.40;3.80;;;;;;;16.01;62.11;96040.97;5109219;28;20180;-70
2023/07/26 07:15:14;;;;;;;6.10;3.93;;;;;;;15.92;62.74;96034.56;5110050;28;20434;-71
2023/07/26 07:17:40;;;;;;;7.70;5.33;;;;;;;15.87;62.70;96034.88;5110141;28;20416;-71
2023/07/26 07:20:07;;;;;;;5.50;3.90;;;;;;;16.04;62.41;96036.31;5098772;28;20208;-69
2023/07/26 07:22:33;;;;;;;7.70;4.03;;;;;;;15.98;63.32;96025.31;5096009;28;20707;-69
2023/07/26 07:24:58;;;;;;;8.47;3.90;;;;;;;16.01;63.62;96027.75;5101453;28;20568;-70
2023/07/26 07:27:24;;;;;;;7.43;3.90;;;;;;;15.97;63.59;96027.13;5093035;28;20438;-69
2023/07/26 07:29:50;;;;;;;11.83;4.07;;;;;;;15.93;63.99;96027.44;5088333;28;20176;-70
2023/07/26 07:32:16;;;;;;;18.73;4.43;;;;;;;15.96;63.94;96033.34;5086184;28;20805;-69
2023/07/26 07:34:41;;;;;;;10.70;4.30;;;;;;;16.03;64.13;96031.13;5100143;28;20224;-69
2023/07/26 07:37:07;;;;;;;9.60;4.13;;;;;;;15.96;63.79;96033.34;5093976;28;21114;-71
2023/07/26 07:39:32;;;;;;;9.13;4.23;;;;;;;15.82;64.18;96042.28;5102396;28;20206;-69
2023/07/26 07:41:58;;;;;;;6.40;4.13;;;;;;;15.90;64.00;96035.59;5106752;28;20184;-71
2023/07/26 07:44:23;;;;;;;7.87;4.20;;;;;;;15.74;64.10;96044.63;5087415;28;20197;-70
2023/07/26 07:46:49;;;;;;;6.50;4.10;;;;;;;15.85;64.27;96046.50;5077937;28;20265;-69
2023/07/26 07:49:14;;;;;;;6.77;3.87;;;;;;;15.82;64.26;96046.72;5090841;28;20491;-72
2023/07/26 07:51:39;;;;;;;12.17;4.60;;;;;;;15.79;64.12;96044.31;5107072;28;20622;-70
2023/07/26 07:54:05;;;;;;;6.87;3.63;;;;;;;15.81;64.27;96048.53;5107684;28;20268;-70
2023/07/26 07:56:30;;;;;;;7.70;4.50;;;;;;;15.98;63.68;96043.84;5103421;28;20188;-70
2023/07/26 07:58:56;;;;;;;5.40;4.50;;;;;;;16.17;63.10;96051.31;5100077;28;20185;-71
2023/07/26 08:01:21;;;;;;;7.57;5.43;;;;;;;16.34;61.68;96039.50;5097864;28;20245;-70
2023/07/26 08:03:47;;;;;;;8.03;4.43;;;;;;;16.72;59.97;96049.94;5095430;28;20169;-71
2023/07/26 08:06:12;;;;;;;7.87;5.00;;;;;;;17.04;59.57;96044.91;5100080;28;20260;-71
2023/07/26 08:08:39;;;;;;;5.30;4.10;;;;;;;17.90;56.66;96034.81;5098499;28;20169;-70
2023/07/26 08:11:06;;;;;;;6.47;4.07;;;;;;;18.28;55.48;96041.53;5107009;28;20180;-70
2023/07/26 08:13:32;;;;;;;5.77;3.90;;;;;;;18.68;54.17;96033.81;5107411;28;20911;-70
2023/07/26 08:15:57;;;;;;;7.10;3.83;;;;;;;18.89;53.26;96027.75;5081192;28;20454;-69
2023/07/26 08:18:23;;;;;;;14.10;4.70;;;;;;;18.60;53.14;96030.97;5097542;28;20197;-70
2023/07/26 08:20:48;;;;;;;7.73;4.23;;;;;;;18.46;53.43;96031.25;5095024;28;20200;-70
2023/07/26 08:23:14;;;;;;;14.17;5.10;;;;;;;18.13;54.12;96044.44;5086099;28;20177;-69
2023/07/26 08:25:40;;;;;;;11.47;5.20;;;;;;;17.88;54.90;96044.69;5092915;28;20646;-70
2023/07/26 08:28:05;;;;;;;8.60;4.50;;;;;;;17.86;54.94;96039.53;5100773;28;20180;-71
2023/07/26 08:30:31;;;;;;;11.47;4.87;;;;;;;17.78;55.19;96042.72;5096939;28;20208;-69
2023/07/26 08:32:57;;;;;;;16.60;4.97;;;;;;;18.01;54.91;96040.13;5091855;28;20269;-70
2023/07/26 08:35:22;;;;;;;5.70;4.47;;;;;;;18.03;54.95;96037.34;5091978;28;20194;-70
2023/07/26 08:37:48;;;;;;;5.20;4.67;;;;;;;17.97;55.93;96042.16;5091677;28;20769;-70
2023/07/26 08:40:13;;;;;;;9.03;4.57;;;;;;;18.25;55.08;96045.28;5091870;28;20649;-70
2023/07/26 08:42:40;;;;;;;6.47;4.43;;;;;;;18.39;54.28;96044.16;5091800;28;20214;-69
2023/07/26 08:45:06;;;;;;;21.00;5.70;;;;;;;18.36;54.64;96039.97;5092779;28;20225;-68
2023/07/26 08:47:34;;;;;;;19.10;6.30;;;;;;;18.16;54.88;96051.31;5091803;28;20587;-69
2023/07/26 08:50:01;;;;;;;24.40;5.40;;;;;;;18.13;54.42;96035.66;5091120;28;20770;-69
2023/07/26 08:52:27;;;;;;;9.43;5.30;;;;;;;18.17;55.00;96045.06;5094294;28;20432;-70
2023/07/26 08:54:52;;;;;;;13.60;4.40;;;;;;;18.77;53.58;96038.41;5094764;28;20447;-68
2023/07/26 08:57:18;;;;;;;8.77;4.57;;;;;;;18.89;53.05;96036.56;5090772;28;20407;-69
2023/07/26 08:59:44;;;;;;;18.63;5.13;;;;;;;19.00;53.09;96036.50;5088230;28;20542;-68
2023/07/26 09:02:13;;;;;;;18.47;7.13;;;;;;;18.76;52.84;96035.88;5099333;28;20446;-69
2023/07/26 09:04:39;;;;;;;8.67;4.20;;;;;;;18.61;53.75;96041.47;5096534;28;20197;-69
2023/07/26 09:07:06;;;;;;;8.70;4.30;;;;;;;18.46;53.31;96036.56;5104920;28;20429;-68
2023/07/26 09:09:36;;;;;;;12.80;5.03;;;;;;;18.26;54.74;96044.34;5110615;28;20184;-68
2023/07/26 09:12:02;;;;;;;13.87;5.07;;;;;;;18.28;54.93;96034.41;5110876;28;20398;-69
2023/07/26 09:14:29;;;;;;;6.63;5.10;;;;;;;18.38;54.62;96039.84;5091198;28;20442;-68
2023/07/26 09:17:00;;;;;;;8.57;4.77;;;;;;;18.17;55.28;96035.28;5103818;28;20493;-67
2023/07/26 09:19:30;;;;;;;4.10;3.70;;;;;;;18.14;53.37;96037.31;5109994;28;20903;-68
2023/07/26 09:22:00;;;;;;;4.07;3.20;;;;;;;17.93;52.44;96040.75;5110405;28;20968;-69
2023/07/26 09:24:33;;;;;;;11.17;3.43;;;;;;;17.98;52.18;96035.91;5095390;28;20461;-69
2023/07/26 09:27:06;;;;;;;11.47;5.13;;;;;;;17.88;52.96;96042.06;5104589;28;20410;-68
2023/07/26 09:29:32;;;;;;;3.73;3.43;;;;;;;17.72;53.96;96040.59;5099554;28;20503;-69
2023/07/26 09:31:58;;;;;;;7.43;3.23;;;;;;;17.66;55.30;96034.91;5110426;28;20407;-69
2023/07/26 09:34:23;;;;;;;16.53;4.20;;;;;;;17.61;56.35;96040.56;5093612;28;20450;-71
2023/07/26 09:36:52;;;;;;;4.77;3.40;;;;;;;17.54;57.08;96044.66;5102033;28;20171;-70
2023/07/26 09:39:20;;;;;;;6.77;4.10;;;;;;;17.45;57.25;96043.56;5109666;28;20738;-71
2023/07/26 09:41:46;;;;;;;4.53;3.20;;;;;;;17.53;57.38;96042.97;5090358;28;20435;-69
2023/07/26 09:44:17;;;;;;;7.73;4.37;;;;;;;17.43;57.67;96045.47;5095286;28;20463;-70
2023/07/26 09:46:48;;;;;;;5.10;4.00;;;;;;;17.46;58.46;96047.06;5109703;28;20908;-69
2023/07/26 09:49:13;;;;;;;6.73;3.90;;;;;;;17.45;59.37;96055.97;5108195;28;20406;-68
2023/07/26 09:51:40;;;;;;;12.60;4.97;;;;;;;17.47;58.92;96062.84;5109990;28;20520;-68
2023/07/26 09:54:07;;;;;;;11.07;4.40;;;;;;;17.29;57.66;96070.44;5097149;28;20195;-68
2023/07/26 09:56:33;;;;;;;6.20;4.67;;;;;;;17.22;59.02;96074.50;5108027;28;20477;-68
2023/07/26 09:59:00;;;;;;;8.90;5.00;;;;;;;17.10;59.29;96078.94;5092720;28;20443;-69
2023/07/26 10:01:29;;;;;;;7.50;4.20;;;;;;;17.02;60.59;96081.28;5107170;28;20414;-70
2023/07/26 10:03:55;;;;;;;7.17;4.50;;;;;;;16.87;61.48;96082.44;5099417;27;20890;-69
2023/07/26 10:06:23;;;;;;;13.50;5.07;;;;;;;16.80;61.00;96082.06;5106203;28;20410;-70
2023/07/26 10:08:49;;;;;;;14.57;5.07;;;;;;;16.77;62.19;96089.34;5109136;28;21143;-70
2023/07/26 10:11:15;;;;;;;7.03;4.90;;;;;;;16.93;63.39;96082.81;5101308;28;20518;-68
2023/07/26 10:13:43;;;;;;;7.10;4.40;;;;;;;16.79;62.66;96082.16;5102388;28;20274;-69
2023/07/26 10:16:09;;;;;;;9.30;4.33;;;;;;;16.69;62.17;96074.84;5090310;28;20423;-70
2023/07/26 10:18:35;;;;;;;15.80;6.40;;;;;;;16.61;62.79;96079.88;5100725;28;20414;-69
2023/07/26 10:21:01;;;;;;;20.53;5.13;;;;;;;16.62;63.57;96084.22;5105998;28;20448;-68
2023/07/26 10:23:30;;;;;;;4.67;3.63;;;;;;;16.53;62.52;96079.56;5088677;28;20169;-69
2023/07/26 10:25:57;;;;;;;3.77;2.90;;;;;;;16.55;60.62;96082.97;5083731;28;20598;-68
2023/07/26 10:28:24;;;;;;;3.83;2.67;;;;;;;16.53;58.54;96082.22;5079240;28;20432;-68
2023/07/26 10:30:52;;;;;;;4.00;2.43;;;;;;;16.29;57.41;96088.34;5096815;28;20486;-71
2023/07/26 10:33:17;;;;;;;26.70;4.03;;;;;;;16.36;57.01;96079.97;5109228;28;20398;-69
2023/07/26 10:35:43;;;;;;;12.53;2.57;;;;;;;16.52;56.71;96072.59;5110827;28;20442;-70
2023/07/26 10:38:09;;;;;;;10.43;3.30;;;;;;;16.80;57.51;96075.91;5078672;28;20181;-70
2023/07/26 10:40:36;;;;;;;11.33;3.40;;;;;;;16.93;57.68;96076.69;5092959;28;20246;-70
2023/07/26 10:43:19;;;;;;;9.27;3.47;;;;;;;16.95;58.07;96072.09;5087778;28;20943;-69
2023/07/26 10:45:46;;;;;;;18.57;4.00;;;;;;;17.09;56.89;96071.09;5086652;28;20445;-71
2023/07/26 10:48:30;;;;;;;5.27;3.13;;;;;;;17.21;55.83;96070.16;5094190;28;20454;-69
2023/07/26 10:50:58;;;;;;;7.20;3.83;;;;;;;17.31;57.25;96072.94;5088533;28;20870;-70
2023/07/26 10:53:37;;;;;;;7.10;2.60;;;;;;;17.44;56.97;96070.22;5083922;28;20447;-71
2023/07/26 10:56:18;;;;;;;11.53;3.40;;;;;;;17.53;57.09;96073.00;5066526;28;21999;-69
2023/07/26 10:58:52;;;;;;;3.27;2.17;;;;;;;17.22;59.14;96077.16;5098726;28;20410;-72
2023/07/26 11:01:42;;;;;;;2.57;1.90;;;;;;;17.19;55.85;96068.56;5107790;28;20739;-71
2023/07/26 11:04:12;;;;;;;3.00;1.87;;;;;;;17.25;55.22;96076.91;5100654;28;20503;-70
2023/07/26 11:07:04;;;;;;;3.97;1.83;;;;;;;16.94;55.50;96065.13;5088575;28;20443;-71
2023/07/26 11:09:32;;;;;;;4.47;2.50;;;;;;;16.79;57.46;96077.69;5087210;28;20404;-72
2023/07/26 11:12:22;;;;;;;2.70;1.80;;;;;;;16.81;58.21;96073.13;5088016;28;20514;-69
2023/07/26 11:14:49;;;;;;;3.50;2.03;;;;;;;16.82;58.35;96076.63;5087753;28;20432;-71
2023/07/26 11:17:14;;;;;;;4.13;1.97;;;;;;;16.95;57.95;96061.50;5093681;28;20438;-70
2023/07/26 11:19:44;;;;;;;19.87;4.00;;;;;;;17.03;57.66;96075.06;5098838;28;20962;-71
2023/07/26 11:22:10;;;;;;;3.93;1.97;;;;;;;17.02;56.36;96076.00;5080552;28;20209;-71
2023/07/26 11:24:35;;;;;;;12.00;2.73;;;;;;;17.14;55.81;96064.47;5096271;28;20501;-71